createdAt,value
2022-08-26T00:54:36.255Z,23.90
2022-08-26T00:57:16.307Z,23.80
2022-08-26T00:59:46.976Z,23.90
2022-08-26T01:02:20.238Z,23.90
2022-08-26T01:04:55.769Z,23.90
2022-08-26T01:07:25.723Z,24.00
2022-08-26T01:09:52.977Z,24.00
2022-08-26T01:12:22.234Z,24.00
2022-08-26T01:14:49.536Z,24.00
2022-08-26T01:17:16.877Z,24.00
2022-08-26T01:19:48.841Z,24.00
2022-08-26T01:22:31.197Z,24.00
2022-08-26T01:25:00.933Z,24.00
2022-08-26T01:27:33.538Z,23.90
2022-08-26T01:30:02.227Z,23.90
2022-08-26T01:32:31.698Z,23.90
2022-08-26T01:34:59.683Z,24.00
2022-08-26T01:37:32.956Z,24.00
2022-08-26T01:40:00.116Z,23.90
2022-08-26T01:42:28.521Z,23.90
2022-08-26T01:45:00.881Z,23.90
2022-08-26T01:47:30.863Z,23.90
2022-08-26T01:50:01.164Z,23.80
2022-08-26T01:52:33.086Z,23.70
2022-08-26T01:55:00.815Z,23.70
2022-08-26T01:57:28.993Z,23.70
2022-08-26T02:00:00.976Z,23.70
2022-08-26T02:02:28.310Z,23.70
2022-08-26T02:05:01.593Z,23.70
2022-08-26T02:07:29.423Z,23.80
2022-08-26T02:09:56.853Z,23.70
2022-08-26T02:12:25.842Z,23.70
2022-08-26T02:14:56.357Z,23.70
2022-08-26T02:17:33.929Z,23.80
2022-08-26T02:20:02.207Z,23.80
2022-08-26T02:22:30.966Z,23.70
2022-08-26T02:25:27.134Z,23.70
2022-08-26T02:27:56.614Z,23.70
2022-08-26T02:30:28.324Z,23.60
2022-08-26T02:32:58.393Z,23.60
2022-08-26T02:35:25.826Z,23.60
2022-08-26T02:37:53.512Z,23.60
2022-08-26T02:40:26.053Z,23.60
2022-08-26T02:42:56.014Z,23.60
2022-08-26T02:45:36.366Z,23.50
2022-08-26T02:48:11.246Z,23.50
2022-08-26T02:50:38.670Z,23.50
2022-08-26T02:53:07.274Z,23.50
2022-08-26T02:55:34.775Z,23.50
2022-08-26T02:58:01.773Z,23.50
2022-08-26T03:00:30.076Z,23.50
2022-08-26T03:02:57.907Z,23.50
2022-08-26T03:05:25.683Z,23.50
2022-08-26T03:07:53.054Z,23.50
2022-08-26T03:10:21.818Z,23.50
2022-08-26T03:12:49.199Z,23.50
2022-08-26T03:15:19.672Z,23.50
2022-08-26T03:17:48.047Z,23.50
2022-08-26T03:20:17.335Z,23.50
2022-08-26T03:22:44.933Z,23.50
2022-08-26T03:25:15.624Z,23.50
2022-08-26T03:27:42.967Z,23.50
2022-08-26T03:30:30.035Z,23.50
2022-08-26T03:32:57.292Z,23.40
2022-08-26T03:35:25.724Z,23.40
2022-08-26T03:37:54.040Z,23.40
2022-08-26T03:40:21.771Z,23.40
2022-08-26T03:42:50.142Z,23.40
2022-08-26T03:45:19.162Z,23.30
2022-08-26T03:47:47.981Z,23.20
2022-08-26T03:50:22.546Z,23.20
2022-08-26T03:52:51.798Z,23.20
2022-08-26T03:55:20.276Z,23.20
2022-08-26T03:57:51.412Z,23.20
2022-08-26T04:00:19.145Z,23.20
2022-08-26T04:02:48.766Z,23.20
2022-08-26T04:05:17.821Z,23.20
2022-08-26T04:07:45.739Z,23.20
2022-08-26T04:10:15.044Z,23.20
2022-08-26T04:12:46.241Z,23.20
2022-08-26T04:15:15.804Z,23.20
2022-08-26T04:17:43.300Z,23.20
2022-08-26T04:20:13.908Z,23.20
2022-08-26T04:22:43.245Z,23.20
2022-08-26T04:25:10.614Z,23.10
2022-08-26T04:27:40.849Z,23.10
2022-08-26T04:30:09.064Z,23.20
2022-08-26T04:32:36.499Z,23.10
2022-08-26T04:35:04.583Z,23.10
2022-08-26T04:37:31.913Z,23.00
2022-08-26T04:39:59.742Z,23.00
2022-08-26T04:42:27.149Z,23.00
2022-08-26T04:44:53.927Z,23.10
2022-08-26T04:47:20.878Z,23.10
2022-08-26T04:49:47.875Z,23.10
2022-08-26T04:52:15.330Z,23.00
2022-08-26T04:54:42.952Z,23.00
2022-08-26T04:57:10.725Z,23.00
2022-08-26T04:59:39.500Z,23.00
2022-08-26T05:02:07.031Z,23.00
2022-08-26T05:04:34.632Z,23.00
2022-08-26T05:07:02.681Z,23.00
2022-08-26T05:09:30.425Z,23.00
2022-08-26T05:11:57.507Z,22.90
2022-08-26T05:14:24.377Z,23.00
2022-08-26T05:16:51.457Z,23.00
2022-08-26T05:19:19.143Z,23.00
2022-08-26T05:21:48.373Z,23.00
2022-08-26T05:24:15.512Z,23.00
2022-08-26T05:26:44.554Z,22.90
2022-08-26T05:29:12.330Z,22.90
2022-08-26T05:31:39.127Z,22.90
2022-08-26T05:34:06.206Z,22.90
2022-08-26T05:36:35.403Z,22.90
2022-08-26T05:39:04.228Z,23.00
2022-08-26T05:41:34.527Z,23.00
2022-08-26T05:44:07.318Z,23.00
2022-08-26T05:46:35.580Z,23.00
2022-08-26T05:49:03.950Z,23.00
2022-08-26T05:51:30.998Z,23.00
2022-08-26T05:53:58.529Z,23.10
2022-08-26T05:56:27.596Z,23.10
2022-08-26T05:58:58.433Z,23.10
2022-08-26T06:01:27.696Z,23.10
2022-08-26T06:03:57.575Z,23.10
2022-08-26T06:06:32.274Z,23.10
2022-08-26T06:09:00.538Z,23.00
2022-08-26T06:11:29.494Z,23.00
2022-08-26T06:14:03.061Z,23.00
2022-08-26T06:16:33.453Z,23.00
2022-08-26T06:19:02.888Z,23.00
2022-08-26T06:21:32.752Z,23.00
2022-08-26T06:24:27.036Z,23.00
2022-08-26T06:26:57.040Z,23.00
2022-08-26T06:29:27.424Z,23.10
2022-08-26T06:31:56.163Z,23.10
2022-08-26T06:34:23.893Z,23.10
2022-08-26T06:36:58.788Z,23.10
2022-08-26T06:39:25.881Z,23.10
2022-08-26T06:41:52.966Z,23.10
2022-08-26T06:44:20.271Z,23.20
2022-08-26T06:46:50.654Z,23.20
2022-08-26T06:49:18.278Z,23.30
2022-08-26T06:51:54.994Z,23.30
2022-08-26T06:54:22.328Z,23.30
2022-08-26T06:56:49.532Z,23.30
2022-08-26T06:59:16.441Z,23.30
2022-08-26T07:01:44.990Z,23.30
2022-08-26T07:04:21.916Z,23.30
2022-08-26T07:06:52.822Z,23.20
2022-08-26T07:09:22.619Z,23.20
2022-08-26T07:11:51.280Z,23.20
2022-08-26T07:14:21.175Z,23.20
2022-08-26T07:16:50.325Z,23.20
2022-08-26T07:19:30.418Z,23.20
2022-08-26T07:21:59.953Z,23.20
2022-08-26T07:24:28.626Z,23.20
2022-08-26T07:27:03.171Z,23.20
2022-08-26T07:29:33.203Z,23.20
2022-08-26T07:32:01.050Z,23.20
2022-08-26T07:34:28.073Z,23.20
2022-08-26T07:36:55.372Z,23.20
2022-08-26T07:39:23.273Z,23.30
2022-08-26T07:41:50.983Z,23.30
2022-08-26T07:44:18.498Z,23.20
2022-08-26T07:46:52.321Z,23.30
2022-08-26T07:49:21.840Z,23.30
2022-08-26T07:51:49.821Z,23.30
2022-08-26T07:54:16.955Z,23.30
2022-08-26T07:56:44.602Z,23.30
2022-08-26T07:59:13.496Z,23.30
2022-08-26T08:01:41.300Z,23.30
2022-08-26T08:04:13.844Z,23.40
2022-08-26T08:06:41.657Z,23.40
2022-08-26T08:09:13.233Z,23.40
2022-08-26T08:11:41.382Z,23.40
2022-08-26T08:14:11.652Z,23.50
2022-08-26T08:16:41.513Z,23.50
2022-08-26T08:19:13.702Z,23.50
2022-08-26T08:21:41.869Z,23.50
2022-08-26T08:24:09.580Z,23.50
2022-08-26T08:26:36.651Z,23.50
2022-08-26T08:29:04.323Z,23.50
2022-08-26T08:31:56.222Z,23.50
2022-08-26T08:34:21.603Z,23.50
2022-08-26T08:36:49.030Z,23.60
2022-08-26T08:39:17.318Z,23.60
2022-08-26T08:42:16.093Z,23.60
2022-08-26T08:44:52.079Z,23.70
2022-08-26T08:47:51.677Z,23.70
2022-08-26T08:50:35.152Z,23.70
2022-08-26T08:53:18.896Z,23.70
2022-08-26T08:56:09.782Z,23.80
2022-08-26T08:58:58.395Z,23.80
2022-08-26T09:01:25.572Z,23.90
2022-08-26T09:04:29.602Z,23.90
2022-08-26T09:07:00.156Z,23.80
2022-08-26T09:09:34.542Z,23.80
2022-08-26T09:12:02.717Z,23.80
2022-08-26T09:14:31.466Z,23.70
2022-08-26T09:17:07.655Z,23.70
2022-08-26T09:19:45.123Z,23.70
2022-08-26T09:22:31.248Z,23.70
2022-08-26T09:24:58.161Z,23.70
2022-08-26T09:27:45.290Z,23.70
2022-08-26T09:30:26.548Z,23.70
2022-08-26T09:33:10.173Z,23.70
2022-08-26T09:35:47.094Z,23.70
2022-08-26T09:38:33.995Z,23.70
2022-08-26T09:41:05.148Z,23.70
2022-08-26T09:43:32.789Z,23.60
2022-08-26T09:46:26.156Z,23.60
2022-08-26T09:48:53.296Z,23.70
2022-08-26T09:51:27.122Z,23.70
2022-08-26T09:53:57.738Z,23.70
2022-08-26T09:56:46.384Z,23.70
2022-08-26T09:59:13.634Z,23.70
2022-08-26T10:01:44.493Z,23.80
2022-08-26T10:04:19.960Z,23.80
2022-08-26T10:07:05.532Z,23.80
2022-08-26T10:09:43.051Z,23.90
2022-08-26T10:12:27.744Z,23.90
2022-08-26T10:15:02.453Z,23.90
2022-08-26T10:17:32.797Z,23.90
2022-08-26T10:20:23.387Z,24.00
2022-08-26T10:23:05.199Z,24.00
2022-08-26T10:25:46.099Z,24.10
2022-08-26T10:28:33.134Z,24.20
2022-08-26T10:31:40.087Z,24.30
2022-08-26T10:34:08.272Z,24.30
2022-08-26T10:39:58.885Z,24.50
2022-08-26T10:42:40.357Z,24.60
2022-08-26T10:45:15.057Z,24.60
2022-08-26T10:47:52.683Z,24.70
2022-08-26T10:50:21.555Z,24.70
2022-08-26T10:52:57.534Z,24.70
2022-08-26T10:55:30.104Z,24.70
2022-08-26T10:58:39.350Z,24.70
2022-08-26T11:01:32.282Z,24.70
2022-08-26T11:04:32.329Z,24.70
2022-08-26T11:07:36.732Z,24.60
2022-08-26T11:10:06.814Z,24.60
2022-08-26T11:12:37.179Z,24.60
2022-08-26T11:15:08.316Z,24.60
2022-08-26T11:17:44.883Z,24.60
2022-08-26T11:20:29.844Z,24.70
2022-08-26T11:23:17.360Z,24.60
2022-08-26T11:25:56.239Z,24.70
2022-08-26T11:28:44.534Z,24.70
2022-08-26T11:31:19.001Z,24.80
2022-08-26T11:33:51.197Z,24.80
2022-08-26T11:36:35.407Z,24.80
2022-08-26T11:39:25.556Z,24.80
2022-08-26T11:41:55.556Z,24.80
2022-08-26T11:44:49.551Z,24.80
2022-08-26T11:47:27.181Z,24.80
2022-08-26T11:50:26.236Z,24.70
2022-08-26T11:53:02.004Z,24.70
2022-08-26T11:55:31.654Z,24.60
2022-08-26T11:58:01.051Z,24.60
2022-08-26T12:00:33.876Z,24.60
2022-08-26T12:03:06.328Z,24.50
2022-08-26T12:05:42.899Z,24.60
2022-08-26T12:08:13.581Z,24.70
2022-08-26T12:10:40.420Z,24.70
2022-08-26T12:13:20.175Z,24.90
2022-08-26T12:15:57.288Z,25.00
2022-08-26T12:18:31.364Z,25.00
2022-08-26T12:21:12.978Z,25.00
2022-08-26T12:23:44.726Z,24.90
2022-08-26T12:26:33.623Z,24.90
2022-08-26T12:29:31.447Z,24.90
2022-08-26T12:32:17.508Z,24.90
2022-08-26T12:34:47.464Z,24.80
2022-08-26T12:37:15.534Z,24.80
2022-08-26T12:39:44.618Z,24.80
2022-08-26T12:42:17.155Z,24.80
2022-08-26T12:45:06.605Z,24.80
2022-08-26T12:47:42.591Z,24.80
2022-08-26T12:50:21.472Z,24.80
2022-08-26T12:53:05.282Z,24.80
2022-08-26T12:55:35.346Z,24.80
2022-08-26T12:58:27.645Z,24.80
2022-08-26T13:00:56.657Z,24.70
2022-08-26T13:03:38.542Z,24.60
2022-08-26T13:06:15.936Z,24.60
2022-08-26T13:08:52.601Z,24.70
2022-08-26T13:11:22.264Z,24.60
2022-08-26T13:13:56.794Z,24.60
2022-08-26T13:16:25.047Z,24.70
2022-08-26T13:18:58.914Z,24.70
2022-08-26T13:21:37.389Z,24.70
2022-08-26T13:24:16.976Z,24.70
2022-08-26T13:26:49.020Z,24.60
2022-08-26T13:29:17.370Z,24.60
2022-08-26T13:31:45.793Z,24.70
2022-08-26T13:34:19.495Z,24.70
2022-08-26T13:36:51.172Z,24.70
2022-08-26T13:39:19.230Z,24.80
2022-08-26T13:41:46.195Z,24.70
2022-08-26T13:44:13.702Z,24.60
2022-08-26T13:46:41.595Z,24.70
2022-08-26T13:49:08.798Z,24.60
2022-08-26T13:51:36.363Z,24.60
2022-08-26T13:54:03.541Z,24.60
2022-08-26T13:56:31.050Z,24.50
2022-08-26T13:58:59.713Z,24.50
2022-08-26T14:01:29.025Z,24.50
2022-08-26T14:03:56.117Z,24.40
2022-08-26T14:06:23.204Z,24.40
2022-08-26T14:08:49.996Z,24.40
2022-08-26T14:11:18.955Z,24.30
2022-08-26T14:13:46.050Z,24.30
2022-08-26T14:16:20.015Z,24.30
2022-08-26T14:18:50.629Z,24.40
2022-08-26T14:21:18.625Z,24.40
2022-08-26T14:23:45.544Z,24.40
2022-08-26T14:26:28.904Z,24.40
2022-08-26T14:29:00.408Z,24.30
2022-08-26T14:31:29.920Z,24.30
2022-08-26T14:34:00.106Z,24.40
2022-08-26T14:36:31.981Z,24.40
2022-08-26T14:39:06.587Z,24.40
2022-08-26T14:41:35.406Z,24.40
2022-08-26T14:44:06.437Z,24.40
2022-08-26T14:46:37.996Z,24.40
2022-08-26T14:49:08.511Z,24.40
2022-08-26T14:51:37.546Z,24.40
2022-08-26T14:54:13.437Z,24.40
2022-08-26T14:56:43.149Z,24.40
2022-08-26T14:59:10.598Z,24.50
2022-08-26T15:01:37.710Z,24.40
2022-08-26T15:04:04.726Z,24.40
2022-08-26T15:06:32.210Z,24.40
2022-08-26T15:08:59.344Z,24.40
2022-08-26T15:11:26.934Z,24.40
2022-08-26T15:13:54.424Z,24.50
2022-08-26T15:16:22.857Z,24.50
2022-08-26T15:18:51.562Z,24.40
2022-08-26T15:21:19.422Z,24.40
2022-08-26T15:23:48.018Z,24.40
2022-08-26T15:26:16.203Z,24.40
2022-08-26T15:28:43.478Z,24.50
2022-08-26T15:31:11.142Z,24.60
2022-08-26T15:33:39.281Z,24.60
2022-08-26T15:36:07.877Z,24.70
2022-08-26T15:38:38.659Z,24.60
2022-08-26T15:41:08.566Z,24.70
2022-08-26T15:43:37.739Z,24.70
2022-08-26T15:46:10.433Z,24.70
2022-08-26T15:48:38.377Z,24.60
2022-08-26T15:51:06.959Z,24.50
2022-08-26T15:53:35.358Z,24.50
2022-08-26T15:56:02.510Z,24.50
2022-08-26T15:58:30.307Z,24.50
2022-08-26T16:00:57.542Z,24.40
2022-08-26T16:03:24.596Z,24.50
2022-08-26T16:05:51.547Z,24.60
2022-08-26T16:08:19.136Z,24.60
2022-08-26T16:10:50.584Z,24.70
2022-08-26T16:13:19.827Z,24.80
2022-08-26T16:15:47.977Z,24.90
2022-08-26T16:18:16.043Z,24.90
2022-08-26T16:21:12.448Z,24.90
2022-08-26T16:23:39.227Z,25.00
2022-08-26T16:26:18.368Z,25.10
2022-08-26T16:28:45.637Z,25.30
2022-08-26T16:31:13.177Z,25.30
2022-08-26T16:33:40.825Z,25.50
2022-08-26T16:36:08.564Z,25.50
2022-08-26T16:38:36.182Z,25.40
2022-08-26T16:41:03.457Z,25.30
2022-08-26T16:43:30.639Z,25.30
2022-08-26T16:45:57.863Z,25.30
2022-08-26T16:48:24.799Z,25.30
2022-08-26T16:50:54.384Z,25.30
2022-08-26T16:53:21.550Z,25.20
2022-08-26T16:55:50.166Z,25.20
2022-08-26T16:58:17.635Z,25.10
2022-08-26T17:00:45.226Z,25.00
2022-08-26T17:03:12.654Z,24.90
2022-08-26T17:05:40.312Z,24.70
2022-08-26T17:08:07.792Z,24.60
2022-08-26T17:10:35.056Z,24.60
2022-08-26T17:13:02.630Z,24.50
2022-08-26T17:15:29.693Z,24.40
2022-08-26T17:17:57.109Z,24.30
2022-08-26T17:20:24.966Z,24.20
2022-08-26T17:22:53.890Z,24.20
2022-08-26T17:25:28.149Z,24.20
2022-08-26T17:30:25.829Z,24.10
2022-08-26T17:32:54.566Z,24.10
2022-08-26T17:35:21.657Z,24.00
2022-08-26T17:37:48.627Z,23.90
2022-08-26T17:40:19.347Z,23.90
2022-08-26T17:42:46.498Z,23.80
2022-08-26T17:45:14.388Z,23.80
2022-08-26T17:47:42.205Z,23.80
2022-08-26T17:50:12.939Z,23.80
2022-08-26T17:52:40.889Z,23.80
2022-08-26T17:55:09.664Z,23.80
2022-08-26T17:57:40.627Z,23.80
2022-08-26T18:00:13.741Z,23.80
2022-08-26T18:02:41.350Z,23.80
2022-08-26T18:05:09.887Z,23.70
2022-08-26T18:07:41.380Z,23.70
2022-08-26T18:10:15.549Z,23.60
2022-08-26T18:12:42.783Z,23.70
2022-08-26T18:15:11.966Z,23.60
2022-08-26T18:17:39.681Z,23.50
2022-08-26T18:20:15.608Z,23.50
2022-08-26T18:22:42.546Z,23.50
2022-08-26T18:25:10.847Z,23.50
2022-08-26T18:27:38.680Z,23.40
2022-08-26T18:30:10.549Z,23.40
2022-08-26T18:32:40.574Z,23.40
2022-08-26T18:35:08.675Z,23.40
2022-08-26T18:37:35.778Z,23.40
2022-08-26T18:40:03.581Z,23.30
2022-08-26T18:42:30.943Z,23.30
2022-08-26T18:44:57.769Z,23.20
2022-08-26T18:47:24.632Z,23.20
2022-08-26T18:49:51.996Z,23.20
2022-08-26T18:52:18.825Z,23.20
2022-08-26T18:54:46.642Z,23.30
2022-08-26T18:57:13.508Z,23.30
2022-08-26T18:59:41.031Z,23.20
2022-08-26T19:02:09.587Z,23.20
2022-08-26T19:04:38.582Z,23.10
2022-08-26T19:07:06.408Z,23.10
2022-08-26T19:09:34.345Z,23.00
2022-08-26T19:12:03.426Z,23.00
2022-08-26T19:14:31.206Z,22.90
2022-08-26T19:16:58.319Z,22.80
2022-08-26T19:19:25.160Z,22.80
2022-08-26T19:21:52.914Z,22.70
2022-08-26T19:24:20.890Z,22.70
2022-08-26T19:26:57.478Z,22.70
2022-08-26T19:29:27.403Z,22.70
2022-08-26T19:31:55.007Z,22.70
2022-08-26T19:34:22.345Z,22.70
2022-08-26T19:36:49.611Z,22.70
2022-08-26T19:39:16.474Z,22.70
2022-08-26T19:41:44.145Z,22.70
2022-08-26T19:44:34.341Z,22.60
2022-08-26T19:47:01.976Z,22.50
2022-08-26T19:49:29.150Z,22.50
2022-08-26T19:51:56.390Z,22.50
2022-08-26T19:54:23.233Z,22.50
2022-08-26T19:56:50.160Z,22.60
2022-08-26T19:59:18.035Z,22.50
2022-08-26T20:01:45.104Z,22.50
2022-08-26T20:04:12.616Z,22.40
2022-08-26T20:06:39.720Z,22.40
2022-08-26T20:09:06.747Z,22.30
2022-08-26T20:11:33.718Z,22.20
2022-08-26T20:14:00.523Z,22.20
2022-08-26T20:16:27.511Z,22.20
2022-08-26T20:19:12.975Z,22.10
2022-08-26T20:21:41.318Z,22.10
2022-08-26T20:24:13.209Z,22.10
2022-08-26T20:26:42.894Z,22.10
2022-08-26T20:29:12.243Z,22.00
2022-08-26T20:31:40.115Z,21.90
2022-08-26T20:34:07.630Z,21.90
2022-08-26T20:36:34.967Z,21.90
2022-08-26T20:39:01.899Z,21.90
2022-08-26T20:41:29.007Z,21.80
2022-08-26T20:43:56.488Z,21.80
2022-08-26T20:46:25.416Z,21.70
2022-08-26T20:48:53.913Z,21.70
2022-08-26T20:51:23.574Z,21.70
2022-08-26T20:53:51.253Z,21.70
2022-08-26T20:56:23.702Z,21.70
2022-08-26T20:58:55.894Z,21.60
2022-08-26T21:01:26.389Z,21.50
2022-08-26T21:03:54.878Z,21.50
2022-08-26T21:06:22.383Z,21.50
2022-08-26T21:08:50.508Z,21.50
2022-08-26T21:11:18.232Z,21.50
2022-08-26T21:14:03.817Z,21.50
2022-08-26T21:16:32.404Z,21.50
2022-08-26T21:19:00.566Z,21.60
2022-08-26T21:21:28.190Z,21.60
2022-08-26T21:23:55.912Z,21.60
2022-08-26T21:26:23.183Z,21.60
2022-08-26T21:28:50.287Z,21.60
2022-08-26T21:31:21.287Z,21.50
2022-08-26T21:33:48.511Z,21.40
2022-08-26T21:36:15.563Z,21.40
2022-08-26T21:38:42.510Z,21.40
2022-08-26T21:41:22.136Z,21.40
2022-08-26T21:43:51.303Z,21.40
2022-08-26T21:46:22.036Z,21.50
2022-08-26T21:48:55.490Z,21.50
2022-08-26T21:51:24.558Z,21.40
2022-08-26T21:53:53.010Z,21.40
2022-08-26T21:56:21.530Z,21.40
2022-08-26T21:58:48.609Z,21.40
2022-08-26T22:01:22.000Z,21.40
2022-08-26T22:03:50.205Z,21.30
2022-08-26T22:06:19.025Z,21.40
2022-08-26T22:08:45.885Z,21.30
2022-08-26T22:11:13.530Z,21.20
2022-08-26T22:13:42.140Z,21.20
2022-08-26T22:16:10.040Z,21.20
2022-08-26T22:18:37.610Z,21.10
2022-08-26T22:21:10.021Z,21.00
2022-08-26T22:23:38.471Z,21.00
2022-08-26T22:26:07.439Z,21.00
2022-08-26T22:28:35.605Z,21.10
2022-08-26T22:31:02.534Z,21.00
2022-08-26T22:33:29.739Z,21.00
2022-08-26T22:35:56.552Z,20.90
2022-08-26T22:38:24.009Z,20.90
2022-08-26T22:40:56.184Z,20.90
2022-08-26T22:43:24.869Z,20.90
2022-08-26T22:45:53.119Z,20.80
2022-08-26T22:48:22.744Z,20.80
2022-08-26T22:50:51.030Z,20.80
2022-08-26T22:53:18.195Z,20.70
2022-08-26T22:55:46.309Z,20.60
2022-08-26T22:58:16.149Z,20.50
2022-08-26T23:00:44.794Z,20.50
2022-08-26T23:03:12.107Z,20.50
2022-08-26T23:05:40.795Z,20.50
2022-08-26T23:08:09.247Z,20.40
2022-08-26T23:10:39.350Z,20.40
2022-08-26T23:13:08.175Z,20.40
2022-08-26T23:15:35.588Z,20.40
2022-08-26T23:18:03.095Z,20.50
2022-08-26T23:20:30.083Z,20.50
2022-08-26T23:22:57.333Z,20.50
2022-08-26T23:25:24.901Z,20.60
2022-08-26T23:27:52.600Z,20.60
2022-08-26T23:30:23.912Z,20.60
2022-08-26T23:32:51.252Z,20.50
2022-08-26T23:35:20.548Z,20.50
2022-08-26T23:37:52.529Z,20.50
2022-08-26T23:40:32.833Z,20.50
2022-08-26T23:43:03.512Z,20.50
2022-08-26T23:45:30.741Z,20.50
2022-08-26T23:47:58.073Z,20.60
2022-08-26T23:50:48.256Z,20.60
2022-08-26T23:53:21.091Z,20.50
2022-08-26T23:55:52.255Z,20.40
2022-08-26T23:58:21.046Z,20.50
